Time;durP1;ratioP1;P1;durP2;ratioP2;P2;SDS_P1;SDS_P2;PMS_P1;PMS_P2;Temp;Humidity;BMP_temperature;BMP_pressure;BME280_temperature;BME280_humidity;BME280_pressure;Samples;Min_cycle;Max_cycle;Signal;HPM_P1;HPM_P2
2021/07/10 00:01:08;;;;;;;10.33;6.60;;;;;;;13.37;nan;97028.03;3549289;40;20477;-76
2021/07/10 00:03:36;;;;;;;7.03;5.80;;;;;;;13.19;nan;97024.94;3547287;40;20715;-72
2021/07/10 00:06:04;;;;;;;10.90;6.13;;;;;;;13.11;nan;97027.25;3548703;40;20476;-76
2021/07/10 00:08:33;;;;;;;7.50;5.40;;;;;;;12.93;nan;97018.91;3552550;40;20442;-73
2021/07/10 00:11:02;;;;;;;7.30;6.10;;;;;;;13.09;nan;97008.13;3551014;40;20472;-74
2021/07/10 00:13:30;;;;;;;12.40;5.77;;;;;;;13.16;nan;97016.41;3548656;40;20475;-74
2021/07/10 00:15:58;;;;;;;9.90;5.70;;;;;;;13.15;nan;97020.84;3553342;40;20918;-74
2021/07/10 00:18:26;;;;;;;9.23;6.10;;;;;;;13.16;nan;97009.38;3551134;40;20781;-72
2021/07/10 00:20:54;;;;;;;9.90;5.87;;;;;;;13.12;nan;97005.28;3553721;40;20589;-71
2021/07/10 00:23:24;;;;;;;11.80;5.33;;;;;;;13.22;nan;97000.19;3551052;40;20494;-74
2021/07/10 00:25:54;;;;;;;6.90;5.63;;;;;;;13.20;nan;97008.19;3547686;40;20553;-74
2021/07/10 00:28:22;;;;;;;5.60;5.00;;;;;;;13.19;nan;97006.53;3547447;40;20568;-74
2021/07/10 00:30:51;;;;;;;5.87;4.97;;;;;;;13.15;nan;97012.97;3550326;40;20969;-71
2021/07/10 00:33:19;;;;;;;7.30;5.33;;;;;;;13.11;nan;97000.97;3552945;40;20474;-72
2021/07/10 00:35:47;;;;;;;8.20;5.93;;;;;;;13.10;nan;97001.09;3549070;40;20788;-74
2021/07/10 00:38:15;;;;;;;12.90;5.73;;;;;;;13.04;nan;96989.22;3550626;40;20600;-71
2021/07/10 00:40:43;;;;;;;8.80;5.43;;;;;;;13.09;nan;96989.72;3548151;40;20830;-73
2021/07/10 00:43:12;;;;;;;14.63;6.43;;;;;;;13.17;nan;96984.75;3550087;40;20444;-71
2021/07/10 00:45:40;;;;;;;8.80;6.40;;;;;;;13.05;nan;96991.75;3551079;40;20587;-74
2021/07/10 00:48:08;;;;;;;9.50;6.50;;;;;;;13.01;nan;96987.63;3551734;40;20462;-73
2021/07/10 00:50:37;;;;;;;7.80;5.33;;;;;;;13.01;nan;96979.75;3548730;40;20694;-72
2021/07/10 00:53:05;;;;;;;10.50;5.50;;;;;;;12.96;nan;96960.88;3546877;40;20768;-72
2021/07/10 00:55:33;;;;;;;10.20;5.70;;;;;;;12.93;nan;96970.75;3553647;40;20781;-73
2021/07/10 00:58:02;;;;;;;9.00;5.57;;;;;;;12.78;nan;96968.28;3552551;40;20444;-73
2021/07/10 01:00:32;;;;;;;7.17;4.90;;;;;;;12.84;nan;96967.84;3551778;40;20538;-72
2021/07/10 01:02:59;;;;;;;17.43;6.20;;;;;;;12.66;nan;96970.00;3550364;40;20554;-71
2021/07/10 01:05:30;;;;;;;15.63;6.47;;;;;;;12.55;nan;96967.31;3546943;40;20463;-74
2021/07/10 01:07:59;;;;;;;12.83;5.80;;;;;;;12.64;nan;96963.16;3549022;40;20547;-75
2021/07/10 01:10:27;;;;;;;10.97;6.23;;;;;;;12.57;nan;96978.53;3551331;40;20474;-72
2021/07/10 01:12:55;;;;;;;8.37;6.63;;;;;;;12.48;nan;96979.19;3553209;40;20527;-72
2021/07/10 01:15:26;;;;;;;12.83;6.57;;;;;;;12.48;nan;96975.72;3552621;40;20462;-74
2021/07/10 01:17:57;;;;;;;7.60;5.40;;;;;;;12.53;nan;96973.63;3547339;40;20561;-73
2021/07/10 01:20:26;;;;;;;8.00;5.67;;;;;;;12.55;nan;96969.09;3546645;40;20514;-74
2021/07/10 01:22:57;;;;;;;10.90;5.23;;;;;;;12.54;nan;96955.09;3554022;40;20466;-72
2021/07/10 01:25:26;;;;;;;10.47;6.00;;;;;;;12.62;nan;96957.19;3545942;40;20466;-74
2021/07/10 01:27:55;;;;;;;8.27;6.33;;;;;;;12.63;nan;96964.13;3545558;40;20567;-74
2021/07/10 01:30:24;;;;;;;13.80;6.20;;;;;;;12.57;nan;96951.44;3547961;40;20802;-72
2021/07/10 01:32:54;;;;;;;11.17;6.17;;;;;;;12.52;nan;96950.91;3550026;40;20708;-73
2021/07/10 01:35:23;;;;;;;9.10;6.57;;;;;;;12.54;nan;96955.09;3550416;40;20585;-71
2021/07/10 01:37:52;;;;;;;9.10;5.67;;;;;;;12.50;nan;96950.19;3549145;40;20595;-75
2021/07/10 01:40:23;;;;;;;10.10;6.40;;;;;;;12.48;nan;96944.19;3544436;40;20478;-74
2021/07/10 01:42:52;;;;;;;8.00;5.40;;;;;;;12.43;nan;96942.75;3548987;40;21095;-75
2021/07/10 01:45:20;;;;;;;8.03;5.27;;;;;;;12.42;nan;96930.53;3550081;40;20470;-72
2021/07/10 01:47:53;;;;;;;10.57;6.27;;;;;;;12.48;nan;96936.31;3552653;40;20771;-74
2021/07/10 01:50:21;;;;;;;8.50;6.50;;;;;;;12.49;nan;96938.00;3545415;40;20538;-73
2021/07/10 01:52:49;;;;;;;11.40;5.73;;;;;;;12.48;nan;96925.81;3546904;40;20918;-71
2021/07/10 01:55:18;;;;;;;8.43;5.37;;;;;;;12.50;nan;96934.41;3546324;40;20462;-72
2021/07/10 01:57:48;;;;;;;13.20;5.63;;;;;;;12.51;nan;96926.44;3547624;40;20784;-76
2021/07/10 02:00:19;;;;;;;5.40;4.30;;;;;;;12.29;nan;96929.75;3552778;40;20729;-73
2021/07/10 02:03:11;;;;;;;11.10;5.70;;;;;;;12.32;nan;96929.53;3552149;40;20874;-75
2021/07/10 02:05:39;;;;;;;10.13;5.40;;;;;;;12.18;nan;96927.88;3550872;40;20758;-73
2021/07/10 02:08:08;;;;;;;7.10;5.80;;;;;;;12.22;nan;96931.13;3556008;40;20917;-73
2021/07/10 02:10:37;;;;;;;10.53;5.80;;;;;;;12.22;nan;96918.81;3549017;40;20831;-72
2021/07/10 02:13:08;;;;;;;11.33;6.10;;;;;;;12.22;nan;96924.06;3552238;40;20521;-73
2021/07/10 02:15:37;;;;;;;6.80;4.87;;;;;;;12.22;nan;96918.00;3547739;40;20858;-73
2021/07/10 02:18:05;;;;;;;5.80;5.00;;;;;;;12.04;nan;96920.13;3551811;40;20839;-75
2021/07/10 02:20:34;;;;;;;14.97;5.07;;;;;;;11.78;nan;96916.63;3549168;40;20567;-70
2021/07/10 02:23:02;;;;;;;9.80;5.17;;;;;;;11.75;nan;96909.81;3547531;40;20985;-73
2021/07/10 02:25:30;;;;;;;9.07;4.90;;;;;;;11.87;nan;96902.88;3553023;40;20524;-74
2021/07/10 02:27:59;;;;;;;6.80;5.67;;;;;;;11.91;nan;96907.00;3551372;40;20919;-75
2021/07/10 02:30:32;;;;;;;22.43;6.50;;;;;;;11.95;nan;96897.97;3551351;40;20451;-74
2021/07/10 02:33:06;;;;;;;9.40;5.93;;;;;;;12.02;nan;96893.97;3553331;40;20849;-73
2021/07/10 02:35:34;;;;;;;11.57;6.30;;;;;;;11.88;nan;96896.69;3554141;40;20459;-73
2021/07/10 02:38:02;;;;;;;9.13;7.03;;;;;;;11.94;nan;96901.56;3554630;40;20907;-76
2021/07/10 02:40:30;;;;;;;13.20;6.10;;;;;;;11.92;nan;96900.81;3550122;40;20472;-73
2021/07/10 02:42:58;;;;;;;12.77;6.40;;;;;;;11.91;nan;96901.75;3550365;40;20453;-71
2021/07/10 02:45:28;;;;;;;9.33;6.30;;;;;;;11.87;nan;96895.00;3551648;40;20459;-74
2021/07/10 02:47:57;;;;;;;9.27;6.07;;;;;;;11.87;nan;96890.59;3551803;40;20473;-71
2021/07/10 02:50:26;;;;;;;8.70;6.37;;;;;;;11.85;nan;96889.84;3547964;40;20887;-73
2021/07/10 02:52:55;;;;;;;7.03;5.90;;;;;;;11.85;nan;96891.66;3548205;40;20450;-73
2021/07/10 02:55:25;;;;;;;12.00;6.77;;;;;;;11.85;nan;96883.78;3548621;40;20963;-72
2021/07/10 02:57:56;;;;;;;12.00;6.50;;;;;;;11.75;nan;96882.75;3549296;40;20966;-74
2021/07/10 03:00:25;;;;;;;7.17;5.90;;;;;;;11.75;nan;96882.75;3553655;40;20983;-73
2021/07/10 03:02:55;;;;;;;8.03;5.40;;;;;;;11.78;nan;96890.38;3551721;40;20582;-76
2021/07/10 03:05:24;;;;;;;11.60;5.80;;;;;;;11.78;nan;96879.88;3550654;40;20976;-74
2021/07/10 03:07:52;;;;;;;10.93;7.47;;;;;;;11.76;nan;96876.53;3550623;40;20553;-74
2021/07/10 03:10:25;;;;;;;8.13;5.30;;;;;;;11.83;nan;96875.19;3548611;40;21125;-71
2021/07/10 03:12:52;;;;;;;7.63;5.90;;;;;;;11.73;nan;96876.75;3549170;40;20561;-73
2021/07/10 03:15:20;;;;;;;11.50;5.83;;;;;;;11.57;nan;96869.94;3554359;40;20590;-72
2021/07/10 03:17:50;;;;;;;12.77;6.30;;;;;;;11.62;nan;96872.25;3551514;40;20455;-75
2021/07/10 03:20:23;;;;;;;11.83;5.97;;;;;;;11.58;nan;96879.47;3550915;40;21184;-74
2021/07/10 03:22:51;;;;;;;11.97;5.87;;;;;;;11.58;nan;96881.25;3551984;40;20691;-72
2021/07/10 03:25:19;;;;;;;7.33;6.17;;;;;;;11.46;nan;96878.53;3551619;40;20603;-73
2021/07/10 03:27:49;;;;;;;8.73;5.27;;;;;;;11.46;nan;96883.78;3550647;40;20772;-72
2021/07/10 03:30:20;;;;;;;6.17;5.20;;;;;;;11.54;nan;96888.50;3548307;40;20833;-72
2021/07/10 03:32:48;;;;;;;12.53;4.40;;;;;;;11.33;nan;96884.69;3549316;40;20556;-73
2021/07/10 03:35:18;;;;;;;7.33;4.60;;;;;;;11.21;nan;96889.00;3546091;40;20700;-72
2021/07/10 03:37:48;;;;;;;10.73;5.63;;;;;;;10.91;nan;96884.84;3548729;40;20965;-74
2021/07/10 03:40:19;;;;;;;11.23;5.40;;;;;;;11.02;nan;96886.78;3550472;40;20480;-73
2021/07/10 03:42:48;;;;;;;8.00;5.10;;;;;;;11.10;nan;96886.25;3548955;40;20781;-71
2021/07/10 03:45:16;;;;;;;11.17;6.67;;;;;;;11.21;nan;96884.59;3549448;40;20497;-72
2021/07/10 03:47:47;;;;;;;12.67;5.90;;;;;;;11.27;nan;96868.47;3551335;40;20461;-71
2021/07/10 03:50:16;;;;;;;11.33;6.03;;;;;;;11.31;nan;96873.47;3550149;40;20492;-72
2021/07/10 03:52:44;;;;;;;16.27;6.10;;;;;;;11.25;nan;96867.72;3550480;40;20468;-73
2021/07/10 03:55:14;;;;;;;8.63;5.33;;;;;;;11.24;nan;96863.41;3550725;40;20490;-71
2021/07/10 03:57:43;;;;;;;11.03;6.13;;;;;;;11.37;nan;96867.81;3547876;40;20462;-72
2021/07/10 04:00:15;;;;;;;17.90;7.30;;;;;;;11.38;nan;96864.28;3547323;40;20562;-71
2021/07/10 04:02:43;;;;;;;9.67;6.20;;;;;;;11.43;nan;96859.56;3551161;40;20904;-74
2021/07/10 04:05:12;;;;;;;11.50;6.47;;;;;;;11.41;nan;96869.31;3550722;40;20678;-74
2021/07/10 04:07:40;;;;;;;10.90;6.67;;;;;;;11.35;nan;96869.72;3551692;40;20682;-73
2021/07/10 04:10:10;;;;;;;11.43;7.13;;;;;;;11.41;nan;96866.69;3548236;40;20463;-71
2021/07/10 04:12:39;;;;;;;10.20;7.13;;;;;;;11.58;nan;96883.88;3546416;40;20498;-75
2021/07/10 04:15:09;;;;;;;12.03;6.47;;;;;;;11.66;nan;96879.81;3547798;40;20763;-74
2021/07/10 04:17:37;;;;;;;9.47;6.37;;;;;;;11.70;nan;96871.72;3551143;40;20836;-70
2021/07/10 04:20:07;;;;;;;10.20;6.90;;;;;;;11.74;nan;96873.19;3549409;40;20471;-76
2021/07/10 04:22:35;;;;;;;9.37;6.10;;;;;;;11.73;nan;96876.75;3548449;40;21143;-73
2021/07/10 04:25:05;;;;;;;15.13;5.93;;;;;;;11.54;nan;96880.63;3546526;40;20782;-76
2021/07/10 04:27:34;;;;;;;12.20;6.57;;;;;;;11.45;nan;96876.03;3548646;40;20530;-74
2021/07/10 04:30:05;;;;;;;10.50;5.97;;;;;;;11.61;nan;96875.81;3548472;40;20792;-75
2021/07/10 04:32:33;;;;;;;11.17;6.13;;;;;;;11.74;nan;96875.81;3549829;40;20869;-76
2021/07/10 04:35:01;;;;;;;23.10;6.20;;;;;;;11.80;nan;96876.25;3549437;40;20553;-72
2021/07/10 04:37:29;;;;;;;7.90;5.13;;;;;;;11.80;nan;96875.38;3548573;40;20954;-73
2021/07/10 04:39:57;;;;;;;9.90;6.63;;;;;;;11.77;nan;96875.59;3551157;40;20666;-73
2021/07/10 04:42:28;;;;;;;9.80;6.33;;;;;;;11.87;nan;96876.63;3547146;40;20520;-73
2021/07/10 04:44:56;;;;;;;8.30;6.23;;;;;;;11.82;nan;96874.34;3548384;40;20851;-75
2021/07/10 04:47:25;;;;;;;9.53;6.37;;;;;;;12.16;nan;96876.41;3547172;40;20445;-74
2021/07/10 04:49:53;;;;;;;12.20;5.83;;;;;;;12.10;nan;96876.88;3546441;40;20946;-76
2021/07/10 04:52:21;;;;;;;10.53;5.73;;;;;;;12.32;nan;96869.13;3554218;40;21187;-73
2021/07/10 04:54:49;;;;;;;13.83;6.60;;;;;;;12.46;nan;96879.47;3554176;40;20746;-77
2021/07/10 04:57:17;;;;;;;16.13;6.50;;;;;;;12.47;nan;96877.69;3545803;40;20583;-73
2021/07/10 04:59:45;;;;;;;13.23;6.70;;;;;;;12.34;nan;96880.34;3547020;40;20497;-73
2021/07/10 05:02:13;;;;;;;10.90;6.50;;;;;;;12.53;nan;96889.56;3549853;40;20548;-75
2021/07/10 05:04:42;;;;;;;9.90;7.00;;;;;;;12.60;nan;96882.88;3552051;40;20458;-76
2021/07/10 05:07:10;;;;;;;12.57;6.93;;;;;;;12.69;nan;96890.13;3550087;40;20456;-76
2021/07/10 05:09:38;;;;;;;8.17;6.60;;;;;;;12.92;nan;96885.81;3550370;40;20471;-74
2021/07/10 05:12:06;;;;;;;13.40;7.30;;;;;;;12.98;nan;96880.09;3548774;40;20443;-74
2021/07/10 05:14:35;;;;;;;8.53;6.17;;;;;;;12.70;nan;96886.56;3549029;40;20753;-74
2021/07/10 05:17:03;;;;;;;13.87;6.47;;;;;;;12.69;nan;96881.41;3552011;40;20460;-73
2021/07/10 05:19:30;;;;;;;8.63;6.67;;;;;;;12.98;nan;96876.63;3549623;40;20575;-75
2021/07/10 05:22:00;;;;;;;11.23;6.20;;;;;;;13.26;nan;96883.28;3549912;40;20935;-72
2021/07/10 05:24:28;;;;;;;11.73;6.70;;;;;;;13.41;nan;96876.09;3550625;40;20484;-72
2021/07/10 05:26:56;;;;;;;12.80;6.20;;;;;;;13.70;nan;96873.00;3555563;40;20728;-75
2021/07/10 05:29:24;;;;;;;9.10;6.37;;;;;;;13.87;nan;96872.53;3554265;40;20478;-73
2021/07/10 05:31:52;;;;;;;17.20;7.57;;;;;;;14.01;nan;96868.81;3550344;40;20919;-73
2021/07/10 05:34:20;;;;;;;15.60;6.87;;;;;;;14.02;nan;96871.34;3557317;40;20461;-76
2021/07/10 05:36:48;;;;;;;7.53;6.00;;;;;;;13.69;nan;96877.44;3550901;40;20446;-74
2021/07/10 05:39:17;;;;;;;13.03;7.67;;;;;;;13.77;nan;96879.47;3551614;40;20850;-74
2021/07/10 05:41:45;;;;;;;10.43;7.00;;;;;;;13.91;nan;96875.78;3552921;40;20928;-76
2021/07/10 05:44:13;;;;;;;11.30;7.50;;;;;;;14.02;nan;96873.97;3551917;40;20840;-72
2021/07/10 05:46:41;;;;;;;18.70;6.73;;;;;;;13.98;nan;96869.91;3548195;40;20503;-74
2021/07/10 05:49:09;;;;;;;7.83;6.57;;;;;;;14.32;nan;96875.16;3555093;40;20479;-75
2021/07/10 05:51:37;;;;;;;14.83;7.80;;;;;;;14.53;nan;96864.69;3546901;40;20459;-72
2021/07/10 05:54:05;;;;;;;8.77;6.60;;;;;;;14.54;nan;96865.53;3550617;40;20808;-74
2021/07/10 05:56:34;;;;;;;15.90;6.97;;;;;;;14.76;nan;96849.69;3550105;40;20720;-73
2021/07/10 05:59:02;;;;;;;10.20;6.40;;;;;;;15.15;nan;96859.69;3550075;40;21367;-75
2021/07/10 06:01:30;;;;;;;8.53;6.07;;;;;;;15.16;nan;96849.03;3549786;40;20816;-75
2021/07/10 06:03:58;;;;;;;11.77;6.90;;;;;;;15.50;nan;96869.94;3553913;40;20812;-75
2021/07/10 06:06:26;;;;;;;8.43;5.67;;;;;;;15.69;nan;96866.56;3548379;40;21148;-73
2021/07/10 06:08:54;;;;;;;397.27;223.33;;;;;;;15.87;nan;96851.00;3554262;40;20464;-75
2021/07/10 06:11:22;;;;;;;15.87;7.93;;;;;;;16.15;nan;96859.16;3551125;40;20831;-73
2021/07/10 06:13:52;;;;;;;7.97;5.70;;;;;;;16.45;nan;96860.09;3546730;40;20883;-73
2021/07/10 06:16:19;;;;;;;7.77;5.40;;;;;;;16.45;nan;96855.63;3546709;40;20476;-74
2021/07/10 06:18:47;;;;;;;7.67;4.53;;;;;;;16.67;nan;96859.03;3551094;40;20463;-72
2021/07/10 06:21:15;;;;;;;7.40;5.70;;;;;;;16.83;nan;96859.34;3550759;40;20472;-73
2021/07/10 06:23:45;;;;;;;10.53;5.90;;;;;;;17.04;nan;96861.03;3549514;40;20901;-75
2021/07/10 06:26:13;;;;;;;7.67;5.53;;;;;;;17.28;nan;96855.28;3547369;40;20733;-73
2021/07/10 06:28:40;;;;;;;13.63;5.70;;;;;;;17.50;nan;96857.63;3548275;40;20466;-74
2021/07/10 06:31:11;;;;;;;8.63;5.40;;;;;;;17.73;nan;96855.47;3556001;40;20823;-72
2021/07/10 06:33:39;;;;;;;8.47;4.90;;;;;;;17.78;nan;96849.75;3548750;40;20503;-76
2021/07/10 06:36:07;;;;;;;6.80;4.40;;;;;;;17.88;nan;96840.00;3547804;40;20731;-77
2021/07/10 06:38:34;;;;;;;5.53;3.70;;;;;;;17.97;nan;96855.03;3547364;40;20436;-73
2021/07/10 06:41:03;;;;;;;15.40;4.63;;;;;;;18.00;nan;96837.16;3548140;40;20483;-73
2021/07/10 06:43:31;;;;;;;6.60;4.57;;;;;;;18.06;nan;96852.47;3550676;40;20546;-74
2021/07/10 06:45:59;;;;;;;6.33;5.03;;;;;;;18.08;nan;96851.34;3549180;40;20704;-75
2021/07/10 06:48:29;;;;;;;7.37;6.07;;;;;;;18.41;nan;96851.75;3550349;40;20545;-74
2021/07/10 06:50:57;;;;;;;8.40;4.10;;;;;;;18.36;nan;96854.00;3550663;40;20523;-74
2021/07/10 06:53:25;;;;;;;4.20;3.80;;;;;;;18.63;nan;96850.50;3546518;40;20456;-72
2021/07/10 06:55:53;;;;;;;5.60;3.90;;;;;;;18.24;nan;96850.72;3550303;40;20490;-73
2021/07/10 06:58:21;;;;;;;7.90;3.60;;;;;;;18.86;nan;96853.56;3550795;40;20451;-74
2021/07/10 07:00:50;;;;;;;7.70;4.33;;;;;;;19.26;nan;96846.13;3546648;40;20858;-74
2021/07/10 07:03:18;;;;;;;5.23;3.60;;;;;;;19.42;nan;96840.94;3546676;40;20534;-74
2021/07/10 07:05:48;;;;;;;7.33;4.10;;;;;;;19.68;nan;96829.47;3550030;40;20568;-73
2021/07/10 07:08:16;;;;;;;3.77;2.80;;;;;;;19.49;nan;96828.69;3554996;40;20463;-73
2021/07/10 07:10:44;;;;;;;7.60;3.53;;;;;;;19.22;nan;96827.00;3547646;40;20922;-73
2021/07/10 07:13:12;;;;;;;4.00;3.47;;;;;;;19.47;nan;96827.19;3547465;40;20549;-72
2021/07/10 07:15:40;;;;;;;6.10;3.17;;;;;;;19.90;nan;96826.31;3546520;40;20464;-72
2021/07/10 07:18:08;;;;;;;4.43;3.10;;;;;;;20.14;nan;96825.59;3545575;40;20765;-75
2021/07/10 07:20:36;;;;;;;5.17;2.97;;;;;;;19.90;nan;96817.53;3550961;40;20482;-71
2021/07/10 07:23:05;;;;;;;6.23;2.90;;;;;;;19.75;nan;96809.31;3550872;40;20547;-72
2021/07/10 07:25:34;;;;;;;3.03;2.33;;;;;;;20.29;nan;96814.38;3548741;40;20576;-73
2021/07/10 07:28:02;;;;;;;2.90;2.57;;;;;;;20.46;nan;96808.06;3554837;40;20489;-74
2021/07/10 07:30:30;;;;;;;4.30;2.87;;;;;;;20.73;nan;96815.00;3549146;40;20545;-74
2021/07/10 07:32:58;;;;;;;6.20;3.27;;;;;;;20.37;nan;96802.94;3555939;40;20759;-76
2021/07/10 07:35:26;;;;;;;4.77;3.17;;;;;;;20.67;nan;96805.00;3555293;40;20685;-72
2021/07/10 07:37:56;;;;;;;7.13;2.70;;;;;;;20.86;nan;96797.72;3555505;40;20717;-73
2021/07/10 07:40:26;;;;;;;15.30;6.80;;;;;;;20.98;nan;96796.41;3552691;40;20474;-74
2021/07/10 07:42:55;;;;;;;3.87;2.93;;;;;;;21.17;nan;96802.38;3551393;40;20458;-72
2021/07/10 07:45:24;;;;;;;4.27;3.20;;;;;;;21.24;nan;96801.53;3562952;40;20468;-73
2021/07/10 07:47:54;;;;;;;6.60;3.10;;;;;;;21.26;nan;96796.06;3554471;40;20475;-74
2021/07/10 07:50:24;;;;;;;4.53;2.73;;;;;;;22.14;nan;96800.53;3550470;40;20476;-74
2021/07/10 07:52:52;;;;;;;5.57;2.77;;;;;;;22.35;nan;96791.97;3560405;40;20480;-73
2021/07/10 07:55:21;;;;;;;10.20;2.57;;;;;;;22.20;nan;96804.34;3551695;40;21414;-72
2021/07/10 07:57:51;;;;;;;4.93;3.83;;;;;;;21.25;nan;96797.91;3554095;40;20813;-73
2021/07/10 08:00:22;;;;;;;2.70;2.10;;;;;;;21.01;nan;96795.22;3550373;40;20483;-73
2021/07/10 08:02:57;;;;;;;6.50;2.50;;;;;;;20.72;nan;96791.22;3550185;40;20471;-72
2021/07/10 08:05:26;;;;;;;4.40;2.43;;;;;;;21.80;nan;96790.16;3556319;40;20506;-74
2021/07/10 08:07:55;;;;;;;4.30;2.27;;;;;;;22.30;nan;96786.31;3554193;40;21126;-74
2021/07/10 08:10:23;;;;;;;6.57;2.70;;;;;;;22.55;nan;96783.53;3554480;40;20462;-72
2021/07/10 08:12:53;;;;;;;3.80;1.97;;;;;;;22.35;nan;96789.31;3548137;40;20767;-73
2021/07/10 08:15:24;;;;;;;5.03;2.40;;;;;;;21.35;nan;96787.06;3551137;40;20463;-73
2021/07/10 08:17:53;;;;;;;4.87;3.00;;;;;;;22.37;nan;96787.28;3552258;40;20483;-73
2021/07/10 08:20:23;;;;;;;2.50;2.30;;;;;;;23.37;nan;96783.75;3553427;40;20482;-72
2021/07/10 08:23:01;;;;;;;3.37;2.67;;;;;;;23.38;nan;96779.22;3562389;40;21184;-71
2021/07/10 08:25:32;;;;;;;4.67;2.20;;;;;;;23.75;nan;96780.19;3556555;40;20552;-73
2021/07/10 08:28:04;;;;;;;5.63;2.80;;;;;;;23.93;nan;96782.53;3554634;40;20451;-72
2021/07/10 08:30:38;;;;;;;4.00;2.10;;;;;;;22.89;nan;96777.78;3553217;40;20493;-71
2021/07/10 08:33:06;;;;;;;7.97;2.40;;;;;;;23.08;nan;96779.16;3554954;40;20759;-73
2021/07/10 08:35:34;;;;;;;3.90;2.70;;;;;;;23.38;nan;96774.69;3545908;40;21196;-73
2021/07/10 08:38:02;;;;;;;2.43;2.23;;;;;;;23.36;nan;96770.56;3547047;40;20452;-71
2021/07/10 08:40:30;;;;;;;2.20;1.97;;;;;;;24.27;nan;96769.38;3549999;40;20678;-73
2021/07/10 08:42:59;;;;;;;49.87;32.47;;;;;;;24.76;nan;96762.53;3550192;40;20464;-74
2021/07/10 08:45:32;;;;;;;5.33;3.50;;;;;;;23.68;nan;96764.06;3552946;40;20463;-73
2021/07/10 08:48:02;;;;;;;4.97;2.60;;;;;;;22.99;nan;96753.50;3550502;40;20741;-71
2021/07/10 08:50:31;;;;;;;7.00;2.27;;;;;;;23.31;nan;96760.44;3549416;40;20828;-72
2021/07/10 08:52:59;;;;;;;1.93;1.60;;;;;;;23.30;nan;96750.75;3548018;40;20467;-72
2021/07/10 08:55:27;;;;;;;2.97;2.63;;;;;;;23.68;nan;96761.41;3551364;40;20876;-74
2021/07/10 08:57:58;;;;;;;8.80;3.40;;;;;;;23.21;nan;96752.69;3552047;40;20455;-75
2021/07/10 09:00:31;;;;;;;3.80;2.10;;;;;;;22.60;nan;96747.31;3549597;40;20572;-74
2021/07/10 09:03:00;;;;;;;3.20;2.43;;;;;;;23.04;nan;96743.97;3548855;40;20458;-72
2021/07/10 09:05:28;;;;;;;3.73;2.37;;;;;;;23.06;nan;96751.81;3553041;40;20577;-72
2021/07/10 09:08:23;;;;;;;4.93;2.37;;;;;;;23.84;nan;96752.38;3545388;40;20721;-72
2021/07/10 09:10:58;;;;;;;4.60;2.27;;;;;;;24.18;nan;96753.63;3550167;40;20818;-72
2021/07/10 09:13:38;;;;;;;3.57;1.93;;;;;;;24.91;nan;96743.72;3551572;40;20482;-74
2021/07/10 09:16:11;;;;;;;4.57;2.57;;;;;;;25.42;nan;96748.91;3549031;40;21132;-71
2021/07/10 09:18:44;;;;;;;3.80;2.20;;;;;;;25.39;nan;96741.25;3549378;40;20436;-71
2021/07/10 09:21:13;;;;;;;2.97;2.47;;;;;;;24.82;nan;96755.59;3551856;40;20480;-73
2021/07/10 09:23:48;;;;;;;2.47;2.20;;;;;;;24.41;nan;96735.59;3548615;40;20925;-73
2021/07/10 09:26:22;;;;;;;4.53;2.33;;;;;;;23.16;nan;96744.38;3547848;40;20556;-73
2021/07/10 09:29:03;;;;;;;5.23;2.13;;;;;;;22.76;nan;96748.16;3548291;40;21092;-71
2021/07/10 09:31:35;;;;;;;2.30;2.10;;;;;;;23.81;nan;96736.72;3547107;40;20934;-76
2021/07/10 09:34:08;;;;;;;4.67;2.27;;;;;;;23.43;nan;96745.59;3551717;40;20467;-72
2021/07/10 09:36:37;;;;;;;2.60;1.87;;;;;;;23.52;nan;96748.19;3551278;40;20778;-71
2021/07/10 09:39:12;;;;;;;3.43;1.90;;;;;;;23.86;nan;96742.34;3549633;40;20909;-74
2021/07/10 09:41:40;;;;;;;4.60;2.23;;;;;;;23.14;nan;96737.56;3557128;40;20862;-72
2021/07/10 09:44:13;;;;;;;6.70;2.43;;;;;;;23.41;nan;96736.94;3546962;40;20827;-71
2021/07/10 09:46:43;;;;;;;4.57;2.30;;;;;;;23.43;nan;96739.44;3550283;40;20451;-73
2021/07/10 09:49:24;;;;;;;2.03;1.70;;;;;;;23.63;nan;96735.19;3552557;40;20454;-72
2021/07/10 09:52:09;;;;;;;4.23;2.67;;;;;;;22.82;nan;96736.81;3549705;40;20451;-73
2021/07/10 09:54:43;;;;;;;6.20;2.90;;;;;;;24.47;nan;96720.63;3549110;40;20465;-71
2021/07/10 09:57:16;;;;;;;6.10;2.03;;;;;;;24.31;nan;96731.56;3555534;40;20755;-73
2021/07/10 09:59:52;;;;;;;2.63;2.23;;;;;;;22.94;nan;96722.00;3549852;40;21050;-72
2021/07/10 10:02:25;;;;;;;4.47;2.40;;;;;;;22.19;nan;96730.66;3549270;40;20820;-71
2021/07/10 10:05:00;;;;;;;3.33;2.70;;;;;;;22.67;nan;96721.53;3548334;40;20535;-72
2021/07/10 10:07:28;;;;;;;3.17;2.57;;;;;;;23.24;nan;96708.75;3547409;40;20871;-73
2021/07/10 10:09:59;;;;;;;5.17;2.50;;;;;;;24.97;nan;96716.19;3556755;40;20831;-73
2021/07/10 10:12:27;;;;;;;2.97;2.50;;;;;;;25.19;nan;96714.28;3547359;40;20526;-72
2021/07/10 10:14:57;;;;;;;2.77;2.10;;;;;;;25.05;nan;96709.84;3545051;40;20765;-72
2021/07/10 10:17:28;;;;;;;3.80;2.33;;;;;;;24.90;nan;96720.66;3557307;40;20935;-72
2021/07/10 10:19:56;;;;;;;6.27;3.17;;;;;;;24.67;nan;96716.31;3548890;40;20475;-74
2021/07/10 10:22:24;;;;;;;14.17;3.57;;;;;;;23.93;nan;96707.66;3548751;40;20460;-72
2021/07/10 10:24:53;;;;;;;2.30;2.10;;;;;;;22.79;nan;96708.59;3548422;40;20470;-73
2021/07/10 10:27:22;;;;;;;2.50;2.13;;;;;;;23.25;nan;96705.06;3667755;22;21964;-72
2021/07/10 10:29:54;;;;;;;5.33;2.23;;;;;;;23.35;nan;96708.28;3549861;40;20459;-74
2021/07/10 10:32:22;;;;;;;2.50;2.10;;;;;;;24.89;nan;96702.09;3548296;40;20542;-75
2021/07/10 10:34:52;;;;;;;3.20;2.30;;;;;;;26.27;nan;96699.63;3548070;40;20451;-74
2021/07/10 10:37:20;;;;;;;3.20;2.00;;;;;;;25.34;nan;96695.44;3551899;40;20657;-74
2021/07/10 10:39:48;;;;;;;3.70;2.60;;;;;;;25.17;nan;96694.06;3550399;40;20761;-73
2021/07/10 10:42:20;;;;;;;2.97;2.20;;;;;;;25.66;nan;96687.81;3550837;40;20522;-74
2021/07/10 10:44:50;;;;;;;3.17;2.63;;;;;;;26.08;nan;96691.31;3550279;40;20471;-75
2021/07/10 10:47:23;;;;;;;3.53;1.77;;;;;;;24.52;nan;96680.78;3550644;40;20844;-75
2021/07/10 10:49:55;;;;;;;5.23;1.90;;;;;;;23.99;nan;96672.97;3553829;40;20649;-72
2021/07/10 10:52:32;;;;;;;2.10;1.90;;;;;;;23.85;nan;96671.97;3560808;40;20471;-74
2021/07/10 10:55:16;;;;;;;4.90;2.33;;;;;;;24.25;nan;96667.09;3547233;40;20971;-74
2021/07/10 10:57:48;;;;;;;5.00;2.23;;;;;;;24.02;nan;96667.25;3546279;40;20480;-73
2021/07/10 11:00:32;;;;;;;9.37;2.57;;;;;;;23.80;nan;96666.38;3547128;40;20824;-74
2021/07/10 11:03:02;;;;;;;3.37;1.50;;;;;;;24.37;nan;96658.56;3552033;40;20766;-73
2021/07/10 11:05:43;;;;;;;6.83;2.13;;;;;;;25.53;nan;96644.84;3548451;40;20812;-73
2021/07/10 11:08:32;;;;;;;2.70;2.23;;;;;;;25.14;nan;96630.16;3549109;40;20887;-74
2021/07/10 11:11:20;;;;;;;7.07;2.10;;;;;;;26.18;nan;96648.81;3550214;40;20862;-73
2021/07/10 11:14:11;;;;;;;4.40;2.33;;;;;;;26.45;nan;96643.50;3557201;40;21100;-73
2021/07/10 11:17:05;;;;;;;2.57;2.20;;;;;;;24.84;nan;96638.41;3547341;40;20565;-75
2021/07/10 11:20:00;;;;;;;2.27;1.80;;;;;;;25.05;nan;96632.16;3549761;39;20851;-72
2021/07/10 11:22:54;;;;;;;8.20;2.47;;;;;;;24.55;nan;96626.03;3532426;40;20547;-73
2021/07/10 11:26:02;;;;;;;2.10;1.90;;;;;;;24.33;nan;96627.84;3548561;40;20975;-71
2021/07/10 11:28:51;;;;;;;3.70;2.53;;;;;;;24.18;nan;96635.94;3546164;40;20479;-74
2021/07/10 11:31:21;;;;;;;2.97;2.27;;;;;;;24.58;nan;96629.16;3548685;40;20852;-72
2021/07/10 11:34:15;;;;;;;2.70;1.97;;;;;;;24.60;nan;96624.41;3549925;40;20448;-74
2021/07/10 11:37:01;;;;;;;1.63;1.53;;;;;;;26.47;nan;96606.53;3540427;40;20469;-74
2021/07/10 11:39:41;;;;;;;3.97;1.80;;;;;;;27.93;nan;96605.47;3535934;40;20749;-74
2021/07/10 11:42:48;;;;;;;4.50;2.17;;;;;;;25.36;nan;96615.66;3537954;40;20460;-73
2021/07/10 11:45:31;;;;;;;6.83;2.63;;;;;;;24.91;nan;96598.28;3540528;40;20931;-73
2021/07/10 11:48:23;;;;;;;2.13;1.60;;;;;;;23.78;nan;96600.75;3541531;40;20570;-74
2021/07/10 11:51:09;;;;;;;3.77;2.67;;;;;;;23.45;nan;96598.47;3539487;40;20685;-72
2021/07/10 11:53:37;;;;;;;4.03;2.20;;;;;;;24.38;nan;96596.81;3541621;40;20538;-73
2021/07/10 11:56:07;;;;;;;2.23;2.00;;;;;;;25.59;nan;96588.56;3538254;40;20464;-74
2021/07/10 11:58:40;;;;;;;2.10;1.90;;;;;;;26.29;nan;96580.31;3538881;40;20522;-73
2021/07/10 12:01:09;;;;;;;2.10;1.53;;;;;;;26.17;nan;96587.31;3543440;40;20696;-71
2021/07/10 12:03:38;;;;;;;7.23;2.33;;;;;;;26.10;nan;96594.53;3541902;40;20768;-75